Time;durP1;ratioP1;P1;durP2;ratioP2;P2;SDS_P1;SDS_P2;PMS_P1;PMS_P2;Temp;Humidity;BMP_temperature;BMP_pressure;BME280_temperature;BME280_humidity;BME280_pressure;Samples;Min_cycle;Max_cycle;Signal;HPM_P1;HPM_P2
2022/11/25 00:01:12;;;;;;;59.77;35.15;;;;;;;1.38;82.45;97076.11;1744102;82;25993;-73
2022/11/25 00:03:40;;;;;;;60.78;36.00;;;;;;;1.38;82.43;97076.61;1671934;85;25723;-73
2022/11/25 00:06:18;;;;;;;60.55;36.42;;;;;;;1.38;82.41;97083.25;1671675;85;28213;-72
2022/11/25 00:08:48;;;;;;;61.15;35.83;;;;;;;1.36;82.43;97077.26;1662193;86;25824;-74
2022/11/25 00:11:16;;;;;;;60.28;36.23;;;;;;;1.36;82.47;97083.91;1662828;86;25930;-75
2022/11/25 00:13:45;;;;;;;59.45;35.98;;;;;;;1.37;82.48;97085.58;1662356;86;26755;-72
2022/11/25 00:16:16;;;;;;;64.95;37.73;;;;;;;1.35;82.52;97084.41;1662408;86;25930;-72
2022/11/25 00:18:49;;;;;;;63.95;36.73;;;;;;;1.37;82.50;97084.25;1662472;86;27397;-72
2022/11/25 00:21:19;;;;;;;64.67;38.38;;;;;;;1.36;82.48;97093.22;1606351;89;25732;-72
2022/11/25 00:23:56;;;;;;;59.33;35.75;;;;;;;1.35;82.49;97087.06;1606286;89;25784;-72
2022/11/25 00:26:25;;;;;;;63.42;35.25;;;;;;;1.34;82.46;97083.23;1606545;89;25994;-71
2022/11/25 00:28:53;;;;;;;66.28;38.00;;;;;;;1.31;82.48;97079.59;1606540;89;25868;-72
2022/11/25 00:31:23;;;;;;;69.30;38.42;;;;;;;1.30;82.50;97083.23;1606592;89;27472;-72
2022/11/25 00:33:51;;;;;;;63.13;35.92;;;;;;;1.30;82.55;97084.56;1606478;89;25834;-74
2022/11/25 00:36:24;;;;;;;66.45;36.28;;;;;;;1.29;82.53;97085.06;1606630;89;25521;-72
2022/11/25 00:38:56;;;;;;;66.10;35.65;;;;;;;1.29;82.50;97082.90;1606530;89;25994;-74
2022/11/25 00:46:52;;;;;;;64.15;36.28;;;;;;;1.27;82.54;97084.88;1579941;90;25509;-73
2022/11/25 00:49:18;;;;;;;57.17;33.55;;;;;;;1.28;82.50;97089.20;1579840;90;25794;-72
2022/11/25 00:51:45;;;;;;;56.75;33.92;;;;;;;1.26;82.48;97082.72;1579802;90;26047;-70
2022/11/25 00:54:12;;;;;;;61.02;34.98;;;;;;;1.25;82.49;97082.87;1579859;90;25871;-72
2022/11/25 00:56:39;;;;;;;57.90;35.48;;;;;;;1.25;82.50;97085.53;1579779;90;28402;-74
2022/11/25 00:59:07;;;;;;;58.25;34.83;;;;;;;1.25;82.51;97095.67;1579765;90;25610;-73
2022/11/25 01:01:35;;;;;;;60.00;33.08;;;;;;;1.20;82.46;97099.83;1579211;90;26593;-74
2022/11/25 01:04:03;;;;;;;55.08;33.60;;;;;;;1.15;82.47;97095.47;1579798;90;26772;-72
2022/11/25 01:06:29;;;;;;;53.50;32.85;;;;;;;1.11;82.51;97099.44;1587834;89;25793;-74
2022/11/25 01:08:56;;;;;;;53.80;33.40;;;;;;;1.12;82.60;97101.10;1608169;89;27438;-72
2022/11/25 01:11:23;;;;;;;58.30;34.88;;;;;;;1.14;82.67;97103.95;1622610;86;25772;-72
2022/11/25 01:13:52;;;;;;;55.88;34.75;;;;;;;1.17;82.70;97106.78;1631347;87;25356;-73
2022/11/25 01:16:20;;;;;;;61.40;35.98;;;;;;;1.17;82.70;97101.47;1620434;88;26231;-75
2022/11/25 01:18:47;;;;;;;58.73;36.03;;;;;;;1.19;82.70;97103.48;1656168;84;26448;-72
2022/11/25 01:21:18;;;;;;;58.35;34.45;;;;;;;1.20;82.68;97110.46;1651621;84;27399;-73
2022/11/25 01:23:47;;;;;;;54.65;34.55;;;;;;;1.21;82.64;97104.16;1687960;80;25749;-71
2022/11/25 01:26:23;;;;;;;60.38;37.67;;;;;;;1.20;82.65;97108.64;1717846;80;25719;-72
2022/11/25 01:28:59;;;;;;;66.45;38.02;;;;;;;1.23;82.74;97108.29;1635068;84;25952;-72
2022/11/25 01:31:29;;;;;;;68.15;39.85;;;;;;;1.25;82.74;97106.80;1659001;84;25938;-75
2022/11/25 01:34:06;;;;;;;63.73;37.75;;;;;;;1.27;82.78;97105.66;1647465;84;27454;-72
2022/11/25 01:36:33;;;;;;;61.00;34.55;;;;;;;1.22;82.70;97101.80;1625544;88;25526;-72
2022/11/25 01:39:00;;;;;;;59.03;35.48;;;;;;;1.21;82.75;97100.17;1627206;88;25949;-72
2022/11/25 01:41:31;;;;;;;60.98;35.23;;;;;;;1.24;82.85;97102.48;1630098;87;26802;-71
2022/11/25 01:44:14;;;;;;;57.10;34.03;;;;;;;1.25;82.81;97104.14;1633821;87;25888;-75
2022/11/25 01:47:01;;;;;;;54.53;31.80;;;;;;;1.24;82.75;97108.63;1645243;87;28221;-72
2022/11/25 01:49:57;;;;;;;48.13;29.48;;;;;;;1.25;82.79;97100.16;1645500;87;25790;-73
2022/11/25 01:52:43;;;;;;;50.78;30.68;;;;;;;1.25;82.75;97106.80;1645378;87;25794;-72
2022/11/25 01:55:20;;;;;;;59.35;36.03;;;;;;;1.24;82.75;97104.64;1645289;87;26035;-72
2022/11/25 01:57:57;;;;;;;70.55;36.60;;;;;;;1.23;82.77;97102.14;1645561;87;25451;-72
2022/11/25 02:00:24;;;;;;;67.27;38.17;;;;;;;1.25;82.83;97098.83;1645383;87;27353;-75
2022/11/25 02:02:54;;;;;;;59.55;35.03;;;;;;;1.27;82.84;97100.84;1645228;87;26000;-72
2022/11/25 02:05:41;;;;;;;60.20;33.40;;;;;;;1.28;82.86;97101.17;1645295;87;25752;-72
2022/11/25 02:08:12;;;;;;;56.58;32.90;;;;;;;1.30;82.81;97096.53;1501964;95;25945;-72
2022/11/25 02:10:39;;;;;;;60.10;34.88;;;;;;;1.30;82.84;97102.69;1501860;94;26591;-72
2022/11/25 02:13:05;;;;;;;62.70;34.88;;;;;;;1.32;82.84;97102.53;1501883;94;28282;-72
2022/11/25 02:15:34;;;;;;;59.42;33.73;;;;;;;1.31;82.79;97101.70;1501680;94;26059;-72
2022/11/25 02:18:01;;;;;;;58.60;35.30;;;;;;;1.31;82.77;97097.70;1501726;94;26591;-72
2022/11/25 02:20:28;;;;;;;55.00;35.20;;;;;;;1.32;82.81;97102.03;1502132;94;25943;-72
2022/11/25 02:23:32;;;;;;;64.50;38.10;;;;;;;1.35;82.86;97105.67;1501998;94;25782;-72
2022/11/25 02:25:59;;;;;;;57.58;33.53;;;;;;;1.38;82.85;97103.20;1527847;93;28432;-72
2022/11/25 02:28:31;;;;;;;54.42;33.48;;;;;;;1.33;82.76;97097.52;1569500;91;25812;-75
2022/11/25 02:30:59;;;;;;;46.80;28.52;;;;;;;1.31;82.76;97094.21;1569726;91;25818;-72
2022/11/25 02:33:27;;;;;;;49.23;30.02;;;;;;;1.31;82.76;97094.21;1572089;89;26058;-72
2022/11/25 02:35:58;;;;;;;57.45;34.78;;;;;;;1.30;82.81;97094.70;1589414;88;26016;-74
2022/11/25 02:38:47;;;;;;;58.15;36.55;;;;;;;1.30;82.81;97092.05;1589358;90;28219;-73
2022/11/25 02:41:28;;;;;;;58.60;35.30;;;;;;;1.26;82.80;97089.37;1589264;88;25783;-75
2022/11/25 02:43:54;;;;;;;55.33;34.83;;;;;;;1.22;82.89;97093.33;1539301;91;25923;-73
2022/11/25 02:46:25;;;;;;;55.50;33.80;;;;;;;1.23;82.94;97095.49;1621617;87;26989;-73
2022/11/25 02:48:54;;;;;;;53.60;35.17;;;;;;;1.24;83.02;97094.01;1626261;87;25495;-73
2022/11/25 02:51:24;;;;;;;52.70;32.30;;;;;;;1.28;83.04;97093.20;1626124;87;27476;-73
2022/11/25 02:53:51;;;;;;;53.13;31.48;;;;;;;1.31;83.04;97099.53;1626024;87;25750;-73
2022/11/25 02:56:22;;;;;;;46.35;28.62;;;;;;;1.31;83.01;97103.52;1626275;87;25819;-76
2022/11/25 02:58:48;;;;;;;56.73;32.48;;;;;;;1.23;82.92;97103.47;1626271;87;25999;-76
2022/11/25 03:01:15;;;;;;;46.63;30.43;;;;;;;1.19;82.95;97107.47;1626176;86;26550;-76
2022/11/25 03:03:42;;;;;;;49.00;31.25;;;;;;;1.22;83.05;97111.11;1646229;84;28368;-73
2022/11/25 03:06:08;;;;;;;54.85;33.10;;;;;;;1.20;83.03;97112.63;1624666;87;26237;-73
2022/11/25 03:08:37;;;;;;;52.43;30.37;;;;;;;1.20;83.02;97117.11;1624850;87;25861;-73
2022/11/25 03:11:05;;;;;;;51.50;31.40;;;;;;;1.20;83.01;97115.28;1637034;86;26102;-75
2022/11/25 03:13:31;;;;;;;49.55;32.25;;;;;;;1.19;83.01;97118.09;1638269;85;25844;-73
2022/11/25 03:15:58;;;;;;;51.90;32.28;;;;;;;1.20;83.04;97116.61;1635562;87;28308;-73
2022/11/25 03:18:25;;;;;;;55.48;33.05;;;;;;;1.21;83.03;97121.44;1635706;85;25471;-74
2022/11/25 03:20:55;;;;;;;48.17;31.40;;;;;;;1.22;83.05;97117.75;1635917;87;25767;-73
2022/11/25 03:23:22;;;;;;;54.42;34.13;;;;;;;1.20;83.00;97119.77;1635886;85;26145;-73
2022/11/25 03:25:49;;;;;;;52.13;33.15;;;;;;;1.18;83.01;97120.42;1635706;87;25818;-76
2022/11/25 03:28:15;;;;;;;60.30;38.00;;;;;;;1.15;83.03;97121.56;1636028;85;27393;-76
2022/11/25 03:30:43;;;;;;;65.17;40.63;;;;;;;1.13;83.10;97121.38;1635459;87;25555;-73
2022/11/25 03:33:09;;;;;;;65.37;41.13;;;;;;;1.11;83.15;97126.02;1635926;85;25816;-73
2022/11/25 03:35:36;;;;;;;61.50;38.02;;;;;;;1.11;83.22;97124.69;1635918;87;25966;-73
2022/11/25 03:38:02;;;;;;;63.80;38.23;;;;;;;1.12;83.23;97136.98;1682180;82;25717;-76
2022/11/25 03:40:29;;;;;;;65.72;39.27;;;;;;;1.14;83.29;97135.84;1702933;83;27414;-73
2022/11/25 03:42:56;;;;;;;65.97;40.12;;;;;;;1.17;83.27;97136.03;1712037;81;25700;-74
2022/11/25 03:45:22;;;;;;;62.35;38.83;;;;;;;1.20;83.26;97135.72;1725932;83;25731;-77
2022/11/25 03:47:49;;;;;;;57.17;35.38;;;;;;;1.22;83.25;97140.36;1713788;81;25980;-73
2022/11/25 03:50:15;;;;;;;51.23;33.83;;;;;;;1.20;83.20;97137.05;1719041;82;25705;-77
2022/11/25 03:52:42;;;;;;;53.23;34.40;;;;;;;1.19;83.21;97143.36;1716318;81;27533;-73
2022/11/25 03:55:11;;;;;;;51.70;33.40;;;;;;;1.21;83.25;97146.70;1707606;81;25753;-77
2022/11/25 03:57:38;;;;;;;52.55;35.58;;;;;;;1.25;83.27;97140.05;1707444;81;25685;-74
2022/11/25 04:00:06;;;;;;;56.23;35.38;;;;;;;1.28;83.25;97146.38;1714182;81;25944;-74
2022/11/25 04:02:33;;;;;;;51.70;35.28;;;;;;;1.28;83.22;97138.41;1720776;81;25729;-74
2022/11/25 04:05:01;;;;;;;50.55;31.80;;;;;;;1.26;83.19;97140.38;1727875;81;27450;-74
2022/11/25 04:07:28;;;;;;;52.03;32.38;;;;;;;1.26;83.22;97141.22;1721452;82;25752;-75
2022/11/25 04:09:55;;;;;;;48.95;29.75;;;;;;;1.28;83.24;97142.39;1713762;81;25787;-75
2022/11/25 04:15:07;;;;;;;47.48;29.07;;;;;;;1.30;83.22;97145.23;1716112;81;26731;-74
2022/11/25 04:17:34;;;;;;;43.10;28.32;;;;;;;1.31;83.18;97144.73;1724217;81;28064;-74
2022/11/25 04:20:01;;;;;;;44.23;27.70;;;;;;;1.30;83.24;97143.91;1727945;81;25804;-75
2022/11/25 04:22:27;;;;;;;40.43;24.87;;;;;;;1.30;83.20;97141.25;1707676;81;25664;-74
2022/11/25 04:24:54;;;;;;;38.70;24.80;;;;;;;1.31;83.24;97145.58;1726252;82;26038;-76
2022/11/25 04:27:20;;;;;;;36.13;24.75;;;;;;;1.33;83.26;97146.22;1708770;81;25826;-73
2022/11/25 04:29:47;;;;;;;40.20;24.12;;;;;;;1.34;83.19;97145.72;1707536;81;27287;-75
2022/11/25 04:32:13;;;;;;;43.73;26.50;;;;;;;1.35;83.18;97142.91;1727161;82;25660;-74
2022/11/25 04:34:40;;;;;;;39.67;25.25;;;;;;;1.36;83.17;97147.23;1708090;81;25703;-74
2022/11/25 04:37:07;;;;;;;48.52;27.65;;;;;;;1.37;83.18;97144.08;1724514;82;25984;-74
2022/11/25 04:39:33;;;;;;;45.70;26.25;;;;;;;1.38;83.13;97141.77;1710711;81;25720;-74
2022/11/25 04:44:45;;;;;;;45.20;27.27;;;;;;;1.40;83.09;97147.77;1721276;80;25788;-76
2022/11/25 04:47:12;;;;;;;44.80;25.32;;;;;;;1.38;83.06;97149.73;1728671;80;25744;-74
2022/11/25 04:49:39;;;;;;;45.03;27.30;;;;;;;1.37;83.09;97152.06;1719092;80;25987;-76
2022/11/25 04:52:05;;;;;;;47.50;26.75;;;;;;;1.37;83.08;97148.91;1744787;82;25818;-74
2022/11/25 04:54:32;;;;;;;45.88;26.68;;;;;;;1.39;83.09;97152.73;1722421;80;27365;-74
2022/11/25 04:56:58;;;;;;;45.03;26.82;;;;;;;1.38;83.09;97151.07;1725476;82;25838;-75
2022/11/25 04:59:40;;;;;;;37.20;24.47;;;;;;;1.38;83.12;97153.73;1744784;81;25717;-73
2022/11/25 05:02:23;;;;;;;43.23;24.57;;;;;;;1.34;83.08;97156.36;1715068;80;26191;-72
2022/11/25 05:04:54;;;;;;;32.17;20.55;;;;;;;1.34;83.20;97155.03;1659142;85;25744;-74
2022/11/25 05:07:23;;;;;;;36.30;22.05;;;;;;;1.36;83.22;97161.03;1679715;85;27463;-74
2022/11/25 05:09:50;;;;;;;34.90;24.05;;;;;;;1.38;83.23;97163.03;1682916;85;25792;-74
2022/11/25 05:12:21;;;;;;;39.33;24.27;;;;;;;1.38;83.21;97167.03;1681790;85;25704;-75
2022/11/25 05:14:48;;;;;;;41.10;22.43;;;;;;;1.34;83.18;97174.48;1683181;85;26670;-74
2022/11/25 05:17:25;;;;;;;34.30;22.15;;;;;;;1.34;83.20;97176.31;1681888;85;25994;-74
2022/11/25 05:19:52;;;;;;;34.27;21.85;;;;;;;1.34;83.26;97175.81;1681083;85;45579;-77
2022/11/25 05:22:22;;;;;;;30.17;19.90;;;;;;;1.35;83.24;97181.97;1681270;85;25768;-74
2022/11/25 05:24:49;;;;;;;31.45;19.30;;;;;;;1.32;83.21;97179.65;1681104;85;25808;-74
2022/11/25 05:27:16;;;;;;;27.48;19.05;;;;;;;1.29;83.25;97184.78;1681369;85;26056;-74
2022/11/25 05:29:43;;;;;;;32.03;20.10;;;;;;;1.32;83.30;97175.16;1683238;85;25784;-74
2022/11/25 05:32:11;;;;;;;33.60;20.90;;;;;;;1.35;83.32;97184.12;1660631;85;27475;-74
2022/11/25 05:34:38;;;;;;;38.02;23.32;;;;;;;1.39;83.33;97192.63;1681130;85;25518;-76
2022/11/25 05:37:05;;;;;;;36.53;22.02;;;;;;;1.39;83.32;97191.30;1680982;85;25767;-74
2022/11/25 05:39:32;;;;;;;36.00;21.10;;;;;;;1.42;83.33;97197.15;1683371;85;26950;-74
2022/11/25 05:41:58;;;;;;;35.98;22.90;;;;;;;1.43;83.27;97192.66;1710083;82;26563;-79
2022/11/25 05:44:25;;;;;;;33.23;21.97;;;;;;;1.42;83.24;97197.15;1721024;80;27691;-77
2022/11/25 05:46:52;;;;;;;26.80;18.55;;;;;;;1.42;83.19;97202.96;1715063;80;25792;-74
2022/11/25 05:49:20;;;;;;;24.27;16.50;;;;;;;1.43;83.19;97204.63;1735994;82;25756;-76
2022/11/25 05:51:47;;;;;;;24.57;16.67;;;;;;;1.45;83.21;97206.61;1735437;80;26000;-75
2022/11/25 05:54:14;;;;;;;27.65;17.50;;;;;;;1.44;83.20;97207.62;1733675;82;25661;-75
2022/11/25 05:56:40;;;;;;;25.27;16.95;;;;;;;1.44;83.17;97215.61;1723867;80;27459;-75
2022/11/25 05:59:09;;;;;;;27.02;16.57;;;;;;;1.45;83.21;97215.42;1728837;80;25491;-76
2022/11/25 06:01:37;;;;;;;28.05;16.42;;;;;;;1.43;83.12;97217.44;1741873;82;25744;-75
2022/11/25 06:04:05;;;;;;;22.93;15.48;;;;;;;1.41;83.15;97215.92;1736831;80;26818;-75
2022/11/25 06:06:32;;;;;;;27.55;16.57;;;;;;;1.36;83.15;97216.88;1728240;80;26076;-73
2022/11/25 06:08:59;;;;;;;35.63;17.15;;;;;;;1.36;83.24;97216.88;1734312;80;27583;-73
2022/11/25 06:11:26;;;;;;;27.05;16.87;;;;;;;1.35;83.23;97216.53;1734880;82;25226;-73
2022/11/25 06:13:56;;;;;;;27.22;17.00;;;;;;;1.36;83.28;97223.53;1715915;80;25722;-72
2022/11/25 06:16:24;;;;;;;29.23;16.62;;;;;;;1.36;83.31;97230.17;1732775;80;26108;-73
2022/11/25 06:18:51;;;;;;;23.47;14.68;;;;;;;1.37;83.34;97231.84;1738604;80;25519;-76
2022/11/25 06:21:18;;;;;;;22.15;15.45;;;;;;;1.41;83.42;97231.88;1730679;82;27431;-73
2022/11/25 06:23:45;;;;;;;25.20;16.07;;;;;;;1.40;83.35;97235.53;1723911;80;25776;-76
2022/11/25 06:26:18;;;;;;;25.82;15.72;;;;;;;1.41;83.34;97227.89;1731897;80;25745;-73
2022/11/25 06:28:46;;;;;;;26.12;16.60;;;;;;;1.41;83.31;97229.22;1715207;80;25963;-73
2022/11/25 06:31:19;;;;;;;28.35;15.38;;;;;;;1.42;83.29;97236.20;1743116;80;25693;-75
2022/11/25 06:33:48;;;;;;;28.32;14.70;;;;;;;1.41;83.28;97233.20;1727142;80;27388;-73
2022/11/25 06:36:15;;;;;;;24.52;15.15;;;;;;;1.40;83.37;97237.69;1742152;82;26330;-73
2022/11/25 06:38:45;;;;;;;22.35;14.13;;;;;;;1.41;83.34;97235.87;1728879;80;25740;-73
2022/11/25 06:41:12;;;;;;;26.93;15.20;;;;;;;1.43;83.32;97241.87;1736042;80;26797;-73
2022/11/25 06:43:39;;;;;;;23.42;15.55;;;;;;;1.44;83.31;97243.54;1731551;82;25808;-74
2022/11/25 06:46:08;;;;;;;28.12;16.25;;;;;;;1.43;83.27;97244.53;1727507;80;27414;-73
2022/11/25 06:48:36;;;;;;;26.62;17.85;;;;;;;1.43;83.33;97245.86;1736244;80;25486;-74
2022/11/25 06:51:06;;;;;;;22.17;15.85;;;;;;;1.47;83.36;97249.02;1739402;80;25718;-73
2022/11/25 06:53:34;;;;;;;23.27;16.02;;;;;;;1.46;83.31;97253.50;1671348;84;26006;-76
2022/11/25 06:56:15;;;;;;;24.75;15.50;;;;;;;1.42;83.29;97250.34;1689633;84;25764;-73
2022/11/25 06:58:43;;;;;;;24.20;16.50;;;;;;;1.40;83.30;97251.48;1689538;84;27040;-74
2022/11/25 07:01:20;;;;;;;29.80;18.98;;;;;;;1.40;83.36;97252.32;1689389;84;25865;-75
2022/11/25 07:03:49;;;;;;;27.95;19.10;;;;;;;1.41;83.38;97255.32;1675796;85;25974;-77
2022/11/25 07:06:18;;;;;;;27.20;17.87;;;;;;;1.44;83.44;97257.67;1675780;85;26002;-74
2022/11/25 07:08:46;;;;;;;29.15;18.40;;;;;;;1.47;83.46;97260.48;1656560;85;25765;-75
2022/11/25 07:11:23;;;;;;;26.65;18.37;;;;;;;1.48;83.40;97258.17;1675478;85;27432;-76
2022/11/25 07:13:55;;;;;;;23.73;15.88;;;;;;;1.51;83.42;97266.34;1669462;85;25546;-75
2022/11/25 07:16:22;;;;;;;28.92;17.07;;;;;;;1.50;83.41;97262.84;1670210;85;25317;-74
2022/11/25 07:18:50;;;;;;;30.95;19.12;;;;;;;1.47;83.33;97263.14;1669119;85;26040;-74
2022/11/25 07:21:24;;;;;;;24.55;17.02;;;;;;;1.47;83.41;97264.48;1675691;85;25833;-75
2022/11/25 07:23:52;;;;;;;26.30;17.42;;;;;;;1.47;83.43;97265.80;1667653;85;27449;-74
2022/11/25 07:26:25;;;;;;;28.95;19.77;;;;;;;1.47;83.44;97265.80;1671177;85;25969;-77
2022/11/25 07:28:53;;;;;;;37.28;25.35;;;;;;;1.49;83.45;97270.97;1675751;85;25804;-73
2022/11/25 07:31:28;;;;;;;41.98;27.15;;;;;;;1.50;83.48;97264.66;1653988;85;25835;-74
2022/11/25 07:34:06;;;;;;;39.23;23.65;;;;;;;1.53;83.50;97269.18;1591437;90;25790;-73
2022/11/25 07:36:34;;;;;;;36.90;25.35;;;;;;;1.54;83.46;97266.86;1553545;91;28265;-74
2022/11/25 07:39:06;;;;;;;39.63;25.25;;;;;;;1.54;83.42;97265.53;1553708;91;26591;-72
2022/11/25 07:41:32;;;;;;;36.88;24.18;;;;;;;1.53;83.44;97275.83;1485758;96;25551;-75
2022/11/25 07:44:04;;;;;;;36.15;22.75;;;;;;;1.54;83.45;97276.67;1481796;96;26009;-75
2022/11/25 07:46:35;;;;;;;35.85;21.93;;;;;;;1.56;83.48;97277.34;1481553;96;25975;-74
2022/11/25 07:49:06;;;;;;;38.67;22.67;;;;;;;1.54;83.44;97278.83;1481372;96;28284;-75
2022/11/25 07:51:47;;;;;;;42.78;25.48;;;;;;;1.56;83.47;97275.52;1458250;96;25890;-73
2022/11/25 07:54:14;;;;;;;80.75;46.53;;;;;;;1.54;83.43;97278.83;1457117;97;25383;-76
2022/11/25 07:56:43;;;;;;;106.90;61.30;;;;;;;1.55;83.46;97280.50;1457243;98;26055;-75
2022/11/25 07:59:15;;;;;;;93.92;53.28;;;;;;;1.58;83.52;97280.66;1456220;98;25805;-76
2022/11/25 08:01:42;;;;;;;79.37;45.30;;;;;;;1.58;83.50;97281.49;1420530;100;27484;-73
2022/11/25 08:04:12;;;;;;;61.92;35.38;;;;;;;1.59;83.48;97283.16;1383862;103;25957;-76
2022/11/25 08:06:42;;;;;;;62.00;33.65;;;;;;;1.60;83.51;97286.17;1386769;103;25872;-76
2022/11/25 08:09:12;;;;;;;64.50;38.20;;;;;;;1.65;83.56;97293.69;1386767;103;26020;-73
2022/11/25 08:11:40;;;;;;;65.45;37.78;;;;;;;1.66;83.50;97300.19;1406280;100;26159;-75
2022/11/25 08:14:07;;;;;;;68.80;38.20;;;;;;;1.65;83.47;97295.85;1431161;98;27518;-75
2022/11/25 08:16:34;;;;;;;65.80;36.53;;;;;;;1.65;83.46;97292.36;1449774;97;25839;-75
2022/11/25 08:19:04;;;;;;;60.05;33.55;;;;;;;1.67;83.46;97298.36;1449683;98;25852;-74
2022/11/25 08:21:31;;;;;;;59.45;35.15;;;;;;;1.68;83.45;97296.88;1449844;98;26056;-77
2022/11/25 08:23:57;;;;;;;58.05;34.27;;;;;;;1.69;83.47;97298.52;1449865;97;25927;-77
2022/11/25 08:28:58;;;;;;;89.13;51.48;;;;;;;1.69;83.43;97298.52;1416023;100;25594;-72
2022/11/25 08:31:36;;;;;;;103.95;57.13;;;;;;;1.73;83.46;97305.69;1422883;100;26002;-75
2022/11/25 08:34:05;;;;;;;109.25;60.15;;;;;;;1.72;83.46;97303.52;1414223;101;26065;-75
2022/11/25 08:36:33;;;;;;;94.72;53.92;;;;;;;1.73;83.48;97305.20;1420685;97;25956;-74
2022/11/25 08:39:04;;;;;;;77.85;48.50;;;;;;;1.76;83.50;97308.05;1478968;95;27690;-73
2022/11/25 08:41:36;;;;;;;74.03;46.30;;;;;;;1.78;83.54;97305.56;1496680;95;25879;-74
2022/11/25 08:44:06;;;;;;;66.27;41.80;;;;;;;1.80;83.47;97307.58;1497160;94;25875;-76
2022/11/25 08:46:38;;;;;;;65.97;42.40;;;;;;;1.79;83.48;97307.73;1497229;95;26111;-73
2022/11/25 08:49:07;;;;;;;;;;;;;;;1.80;83.48;97304.92;1527178;90;25762;-76
2022/11/25 08:51:35;;;;;;;72.82;43.52;;;;;;;1.81;83.52;97307.89;1591937;88;28462;-74
2022/11/25 08:54:03;;;;;;;96.40;55.50;;;;;;;1.77;83.53;97311.88;1591925;88;26515;-76
2022/11/25 08:56:30;;;;;;;93.45;55.12;;;;;;;1.81;83.57;97312.41;1592052;88;25782;-74
2022/11/25 08:58:58;;;;;;;95.00;53.42;;;;;;;1.85;83.56;97314.23;1608290;86;26599;-72
2022/11/25 09:01:27;;;;;;;116.47;62.40;;;;;;;1.84;83.52;97313.89;1609356;86;25783;-74
2022/11/25 09:03:56;;;;;;;107.27;60.30;;;;;;;1.85;83.55;97319.06;1609543;86;28188;-75
2022/11/25 09:06:25;;;;;;;88.50;52.20;;;;;;;1.81;83.54;97318.53;1609263;86;25918;-73
2022/11/25 09:08:57;;;;;;;89.92;52.70;;;;;;;1.79;83.54;97317.88;1618600;86;25767;-76
2022/11/25 09:11:24;;;;;;;85.05;52.67;;;;;;;1.81;83.58;97319.86;1611645;89;25985;-74
2022/11/25 09:13:51;;;;;;;86.25;54.38;;;;;;;1.81;83.61;97322.52;1611738;89;25911;-76
2022/11/25 09:16:18;;;;;;;94.03;54.38;;;;;;;1.87;83.65;97320.23;1611752;89;27498;-75
2022/11/25 09:18:44;;;;;;;97.20;57.73;;;;;;;1.87;83.64;97317.08;1611532;89;25793;-76
2022/11/25 09:21:15;;;;;;;87.12;53.78;;;;;;;1.92;83.69;97325.44;1611662;89;25923;-75
2022/11/25 09:23:41;;;;;;;86.75;51.90;;;;;;;1.98;83.72;97328.77;1611584;89;26911;-75
2022/11/25 09:26:22;;;;;;;83.15;47.00;;;;;;;2.02;83.72;97330.63;1635133;86;25794;-74
2022/11/25 09:28:49;;;;;;;76.72;46.13;;;;;;;2.03;83.66;97330.47;1655615;86;27048;-76
2022/11/25 09:31:16;;;;;;;73.60;45.80;;;;;;;2.06;83.65;97330.63;1694936;84;25599;-74
2022/11/25 09:33:44;;;;;;;79.95;46.88;;;;;;;2.05;83.57;97332.98;1663374;86;25738;-76
2022/11/25 09:36:17;;;;;;;82.30;47.27;;;;;;;2.05;83.62;97326.32;1667473;84;26003;-76
2022/11/25 09:38:44;;;;;;;81.92;48.45;;;;;;;2.06;83.69;97334.62;1643526;86;25555;-76
2022/11/25 09:47:57;;;;;;;85.22;52.65;;;;;;;2.12;83.90;97336.66;1719326;83;25792;-73
2022/11/25 09:50:52;;;;;;;91.28;54.05;;;;;;;2.20;83.98;97338.01;1719470;83;26002;-73
2022/11/25 09:53:42;;;;;;;93.55;53.13;;;;;;;2.22;83.87;97334.70;1719384;83;25331;-74
2022/11/25 09:56:41;;;;;;;99.00;56.45;;;;;;;2.22;83.91;97333.36;1719301;83;28190;-74
2022/11/25 09:59:28;;;;;;;94.62;53.05;;;;;;;2.29;83.97;97337.06;1676730;85;25809;-74
2022/11/25 10:02:01;;;;;;;89.75;55.03;;;;;;;2.29;83.96;97334.41;1676704;85;25817;-75
2022/11/25 10:04:39;;;;;;;96.78;55.15;;;;;;;2.34;83.99;97341.39;1679821;85;26008;-74
2022/11/25 10:07:11;;;;;;;92.57;54.90;;;;;;;2.40;84.01;97335.94;1676777;85;26528;-74
2022/11/25 10:09:37;;;;;;;105.47;60.30;;;;;;;2.46;83.96;97337.94;1604066;88;27397;-73
2022/11/25 10:12:29;;;;;;;108.27;61.42;;;;;;;2.48;83.90;97335.45;1587982;89;25812;-73
2022/11/25 10:15:07;;;;;;;108.32;63.38;;;;;;;2.54;83.88;97337.95;1572020;89;25839;-74
2022/11/25 10:17:50;;;;;;;112.10;63.90;;;;;;;2.60;83.83;97339.14;1599636;88;25999;-75
2022/11/25 10:20:25;;;;;;;113.10;64.37;;;;;;;2.63;83.75;97338.82;1584252;89;25901;-73
2022/11/25 10:22:59;;;;;;;111.92;64.40;;;;;;;2.68;83.73;97342.64;1602363;88;28286;-74
2022/11/25 10:25:34;;;;;;;124.05;72.47;;;;;;;2.71;83.69;97341.49;1558514;91;25780;-75
2022/11/25 10:28:12;;;;;;;131.43;72.42;;;;;;;2.73;83.62;97340.34;1540911;91;25853;-75
2022/11/25 10:30:47;;;;;;;133.03;75.57;;;;;;;2.77;83.63;97340.85;1535313;93;26107;-75
2022/11/25 10:33:32;;;;;;;132.00;76.35;;;;;;;2.82;83.63;97336.68;1535116;93;25746;-75
2022/11/25 10:36:05;;;;;;;133.80;76.50;;;;;;;2.88;83.64;97339.20;1526079;93;27515;-74
2022/11/25 10:39:06;;;;;;;127.15;74.25;;;;;;;2.95;83.64;97340.69;1512807;93;25793;-75
2022/11/25 10:41:53;;;;;;;127.20;73.57;;;;;;;2.99;83.63;97337.55;1506440;93;25861;-73
2022/11/25 10:44:33;;;;;;;140.37;77.82;;;;;;;3.03;83.60;97336.19;1539098;91;26095;-75
2022/11/25 10:47:57;;;;;;;140.57;77.30;;;;;;;3.05;83.55;97340.86;1542358;91;25929;-74
2022/11/25 10:50:50;;;;;;;132.87;71.85;;;;;;;3.09;83.59;97343.54;1542300;91;27697;-75
2022/11/25 10:53:23;;;;;;;137.30;72.22;;;;;;;3.11;83.50;97350.88;1539594;91;25919;-74
2022/11/25 10:56:12;;;;;;;149.35;78.72;;;;;;;3.11;83.44;97352.22;1540412;91;25863;-73
2022/11/25 10:58:41;;;;;;;165.25;84.65;;;;;;;3.13;83.46;97354.22;1542464;91;26648;-74
2022/11/25 11:01:21;;;;;;;119.15;66.92;;;;;;;3.17;83.47;97352.88;1564854;90;25970;-75
2022/11/25 11:03:56;;;;;;;106.27;59.60;;;;;;;3.20;83.41;97353.88;1592023;88;27401;-76
2022/11/25 11:06:34;;;;;;;94.52;56.02;;;;;;;3.22;83.28;97357.22;1584416;88;26270;-75
2022/11/25 11:09:00;;;;;;;92.45;51.68;;;;;;;3.21;83.21;97355.55;1582799;89;26438;-74
2022/11/25 11:11:27;;;;;;;91.82;55.03;;;;;;;3.20;83.17;97349.88;1585650;89;25969;-74
2022/11/25 11:14:11;;;;;;;97.97;53.58;;;;;;;3.21;83.16;97354.22;1586513;89;25589;-73
2022/11/25 11:16:41;;;;;;;79.50;46.80;;;;;;;3.23;83.19;97344.72;1557130;90;28167;-73
2022/11/25 11:19:22;;;;;;;67.55;41.98;;;;;;;3.28;83.18;97350.86;1596066;89;25823;-74
2022/11/25 11:21:49;;;;;;;66.75;41.15;;;;;;;3.30;83.13;97352.88;1599505;89;25754;-73
2022/11/25 11:24:34;;;;;;;62.78;41.53;;;;;;;3.32;83.16;97354.38;1622551;84;26092;-72
2022/11/25 11:27:08;;;;;;;72.72;41.70;;;;;;;3.32;83.13;97347.70;1653384;84;25851;-74
2022/11/25 11:29:35;;;;;;;71.60;43.52;;;;;;;3.32;83.12;97352.20;1669664;82;28090;-72
2022/11/25 11:32:05;;;;;;;95.42;54.18;;;;;;;3.33;83.14;97354.71;1690629;84;25969;-73
2022/11/25 11:34:55;;;;;;;94.92;55.70;;;;;;;3.35;83.13;97350.55;1672949;84;26053;-73
2022/11/25 11:37:43;;;;;;;95.65;55.65;;;;;;;3.39;83.16;97351.36;1670150;82;25977;-73
2022/11/25 11:40:32;;;;;;;86.55;51.77;;;;;;;3.43;83.22;97350.03;1684442;82;25860;-73
2022/11/25 11:43:36;;;;;;;80.97;47.45;;;;;;;3.48;83.19;97354.88;1682449;82;28040;-75
2022/11/25 11:46:23;;;;;;;98.42;61.92;;;;;;;3.51;83.23;97347.84;1665763;83;25836;-73
2022/11/25 11:49:03;;;;;;;115.90;72.42;;;;;;;3.53;83.31;97349.85;1653894;83;25946;-73
2022/11/25 11:51:51;;;;;;;119.37;75.08;;;;;;;3.56;83.32;97351.69;1687408;83;25995;-74
2022/11/25 11:54:41;;;;;;;119.67;74.42;;;;;;;3.60;83.36;97349.03;1690483;84;25542;-74
2022/11/25 11:57:34;;;;;;;126.47;76.80;;;;;;;3.57;83.19;97354.69;1684408;85;28285;-75
2022/11/25 12:00:17;;;;;;;127.58;76.37;;;;;;;3.60;83.33;97357.53;1654817;86;25760;-76
2022/11/25 12:03:06;;;;;;;121.45;76.00;;;;;;;3.64;83.33;97352.17;1653359;86;25859;-74
2022/11/25 12:05:34;;;;;;;121.45;72.42;;;;;;;3.62;83.27;97355.53;1632866;86;27236;-74